createdAt,value
2022-11-04T00:01:58.483Z,99399.58
2022-11-04T00:06:07.469Z,99395.87
2022-11-04T00:10:15.994Z,99387.19
2022-11-04T00:14:24.942Z,99383.14
2022-11-04T00:18:32.533Z,99380.27
2022-11-04T00:22:58.889Z,99371.88
2022-11-04T00:27:25.003Z,99359.15
2022-11-04T00:31:50.802Z,99360.28
2022-11-04T00:36:00.198Z,99355.78
2022-11-04T00:40:10.488Z,99350.95
2022-11-04T00:44:19.440Z,99343.98
2022-11-04T00:48:27.731Z,99341.65
2022-11-04T00:52:36.178Z,99334.15
2022-11-04T00:56:44.989Z,99322.81
2022-11-04T01:00:53.409Z,99317.27
2022-11-04T01:05:00.921Z,99319.52
2022-11-04T01:09:10.042Z,99318.67
2022-11-04T01:13:20.899Z,99309.80
2022-11-04T01:17:29.224Z,99300.96
2022-11-04T01:21:37.106Z,99300.27
2022-11-04T01:25:44.594Z,99294.58
2022-11-04T01:29:52.198Z,99290.91
2022-11-04T01:34:00.893Z,99285.12
2022-11-04T01:38:08.509Z,99282.17
2022-11-04T01:42:24.447Z,99275.70
2022-11-04T01:46:38.385Z,99272.50
2022-11-04T01:50:46.367Z,99265.83
2022-11-04T01:54:55.257Z,99262.45
2022-11-04T01:59:07.150Z,99259.80
2022-11-04T02:03:17.723Z,99253.98
2022-11-04T02:07:25.912Z,99253.31
2022-11-04T02:11:51.764Z,99246.15
2022-11-04T02:16:09.493Z,99248.59
2022-11-04T02:20:25.431Z,99241.02
2022-11-04T02:24:49.610Z,99248.40
2022-11-04T02:29:17.646Z,99246.34
2022-11-04T02:33:28.686Z,99238.45
2022-11-04T02:37:44.304Z,99242.21
2022-11-04T02:41:57.117Z,99240.09
2022-11-04T02:46:09.428Z,99234.26
2022-11-04T02:50:21.767Z,99239.30
2022-11-04T02:54:32.734Z,99240.82
2022-11-04T02:58:45.061Z,99236.96
2022-11-04T03:02:55.873Z,99235.98
2022-11-04T03:07:05.709Z,99238.94
2022-11-04T03:11:16.108Z,99229.27
2022-11-04T03:15:26.606Z,99224.23
2022-11-04T03:19:39.011Z,99224.30
2022-11-04T03:23:46.877Z,99222.45
2022-11-04T03:27:59.053Z,99215.73
2022-11-04T03:32:12.622Z,99214.30
2022-11-04T03:36:20.955Z,99207.05
2022-11-04T03:40:29.814Z,99208.08
2022-11-04T03:44:37.603Z,99199.27
2022-11-04T03:48:47.734Z,99196.45
2022-11-04T03:52:56.017Z,99201.55
2022-11-04T03:57:38.028Z,99196.87
2022-11-04T04:01:52.180Z,99199.81
2022-11-04T04:06:04.140Z,99202.80
2022-11-04T04:10:34.158Z,99195.80
2022-11-04T04:14:44.646Z,99195.24
2022-11-04T04:18:58.503Z,99191.05
2022-11-04T04:23:29.835Z,99192.23
2022-11-04T04:27:37.260Z,99190.53
2022-11-04T04:31:51.414Z,99187.81
2022-11-04T04:36:00.410Z,99182.45
2022-11-04T04:40:28.202Z,99184.04
2022-11-04T04:44:54.109Z,99186.99
2022-11-04T04:49:08.486Z,99181.48
2022-11-04T04:53:16.468Z,99181.70
2022-11-04T04:57:24.198Z,99177.30
2022-11-04T05:01:31.810Z,99172.77
2022-11-04T05:05:39.875Z,99170.20
2022-11-04T05:09:47.755Z,99162.45
2022-11-04T05:13:55.321Z,99163.77
2022-11-04T05:18:04.926Z,99160.96
2022-11-04T05:22:12.461Z,99163.05
2022-11-04T05:26:21.265Z,99161.52
2022-11-04T05:30:29.328Z,99159.84
2022-11-04T05:34:37.076Z,99151.59
2022-11-04T05:38:45.452Z,99148.02
2022-11-04T05:42:53.816Z,99150.46
2022-11-04T05:47:01.502Z,99146.24
2022-11-04T05:51:09.351Z,99151.79
2022-11-04T05:55:17.348Z,99157.95
2022-11-04T05:59:24.561Z,99160.05
2022-11-04T06:03:32.803Z,99163.05
2022-11-04T06:07:40.820Z,99165.13
2022-11-04T06:11:48.617Z,99169.54
2022-11-04T06:15:56.397Z,99165.65
2022-11-04T06:20:04.520Z,99170.55
2022-11-04T06:24:14.797Z,99179.79
2022-11-04T06:28:22.620Z,99180.02
2022-11-04T06:32:30.348Z,99178.30
2022-11-04T06:36:37.754Z,99175.75
2022-11-04T06:40:46.389Z,99168.55
2022-11-04T06:44:56.805Z,99166.66
2022-11-04T06:49:13.623Z,99173.35
2022-11-04T06:53:24.751Z,99183.39
2022-11-04T06:57:38.742Z,99183.02
2022-11-04T07:01:49.292Z,99189.02
2022-11-04T07:06:01.311Z,99200.67
2022-11-04T07:10:14.450Z,99207.52
2022-11-04T07:14:29.259Z,99208.80
2022-11-04T07:18:44.406Z,99208.97
2022-11-04T07:22:57.398Z,99211.36
2022-11-04T07:27:12.466Z,99209.05
2022-11-04T07:31:23.431Z,99210.98
2022-11-04T07:35:32.677Z,99210.73
2022-11-04T07:39:40.750Z,99212.18
2022-11-04T07:43:53.615Z,99219.43
2022-11-04T07:48:01.746Z,99220.89
2022-11-04T07:52:11.746Z,99224.96
2022-11-04T07:56:26.331Z,99230.61
2022-11-04T08:00:37.600Z,99229.09
2022-11-04T08:04:48.243Z,99232.29
2022-11-04T08:08:56.503Z,99228.74
2022-11-04T08:13:07.017Z,99230.30
2022-11-04T08:17:16.799Z,99229.89
2022-11-04T08:21:28.194Z,99220.98
2022-11-04T08:25:35.920Z,99215.91
2022-11-04T08:29:44.786Z,99210.09
2022-11-04T08:33:52.615Z,99204.77
2022-11-04T08:38:07.314Z,99197.02
2022-11-04T08:42:22.399Z,99193.72
2022-11-04T08:46:39.625Z,99198.70
2022-11-04T08:50:52.200Z,99207.02
2022-11-04T08:55:02.933Z,99201.30
2022-11-04T08:59:15.135Z,99200.42
2022-11-04T09:03:30.595Z,99184.86
2022-11-04T09:07:41.825Z,99190.77
2022-11-04T09:11:55.381Z,99197.44
2022-11-04T09:16:12.499Z,99204.38
2022-11-04T09:20:20.243Z,99202.40
2022-11-04T09:24:33.669Z,99204.76
2022-11-04T09:28:44.188Z,99197.64
2022-11-04T09:32:53.069Z,99201.86
2022-11-04T09:37:03.208Z,99200.16
2022-11-04T09:41:35.730Z,99198.24
2022-11-04T09:45:50.389Z,99194.31
2022-11-04T09:50:02.712Z,99197.44
2022-11-04T09:54:17.111Z,99200.55
2022-11-04T09:58:29.909Z,99198.16
2022-11-04T10:02:53.456Z,99189.91
2022-11-04T10:07:14.385Z,99185.38
2022-11-04T10:11:37.078Z,99181.30
2022-11-04T10:16:08.870Z,99183.60
2022-11-04T10:20:43.981Z,99181.59
2022-11-04T10:25:06.812Z,99180.90
2022-11-04T10:29:18.839Z,99184.48
2022-11-04T10:33:30.891Z,99191.71
2022-11-04T10:37:38.284Z,99190.51
2022-11-04T10:41:55.210Z,99191.14
2022-11-04T10:46:14.025Z,99192.77
2022-11-04T10:50:38.039Z,99184.19
2022-11-04T10:54:50.122Z,99179.41
2022-11-04T10:59:09.510Z,99186.98
2022-11-04T11:03:37.538Z,99175.82
2022-11-04T11:07:46.787Z,99171.96
2022-11-04T11:12:00.070Z,99164.50
2022-11-04T11:16:13.628Z,99152.29
2022-11-04T11:20:27.326Z,99142.14
2022-11-04T11:24:39.531Z,99137.77
2022-11-04T11:28:58.426Z,99140.71
2022-11-04T11:33:09.872Z,99143.34
2022-11-04T11:37:24.265Z,99146.17
2022-11-04T11:41:56.666Z,99145.16
2022-11-04T11:46:24.796Z,99140.02
2022-11-04T11:50:36.292Z,99128.55
2022-11-04T11:54:46.428Z,99128.83
2022-11-04T12:12:51.946Z,99127.49
2022-11-04T12:17:06.185Z,99125.39
2022-11-04T12:21:19.938Z,99130.48
2022-11-04T12:25:33.307Z,99133.84
2022-11-04T12:29:53.224Z,99135.31
2022-11-04T12:34:07.723Z,99139.00
2022-11-04T12:38:38.778Z,99130.85
2022-11-04T12:42:56.432Z,99136.37
2022-11-04T12:47:23.970Z,99130.97
2022-11-04T12:51:38.900Z,99126.05
2022-11-04T12:55:53.627Z,99119.52
2022-11-04T13:00:11.682Z,99106.56
2022-11-04T13:04:23.105Z,99111.45
2022-11-04T13:08:37.731Z,99115.31
2022-11-04T13:12:47.035Z,99122.35
2022-11-04T13:16:56.894Z,99128.52
2022-11-04T13:21:07.855Z,99132.24
2022-11-04T13:25:21.502Z,99124.24
2022-11-04T13:29:29.883Z,99131.45
2022-11-04T13:33:42.616Z,99127.66
2022-11-04T13:37:56.991Z,99120.02
2022-11-04T13:42:26.858Z,99125.72
2022-11-04T13:46:36.499Z,99123.89
2022-11-04T13:50:44.740Z,99125.85
2022-11-04T13:54:59.087Z,99126.84
2022-11-04T13:59:19.014Z,99114.98
2022-11-04T14:03:54.327Z,99113.55
2022-11-04T14:08:17.348Z,99126.81
2022-11-04T14:12:41.261Z,99120.45
2022-11-04T14:16:52.871Z,99116.48
2022-11-04T14:21:10.551Z,99114.80
2022-11-04T14:25:31.405Z,99112.23
2022-11-04T14:29:41.063Z,99115.65
2022-11-04T14:33:56.052Z,99115.13
2022-11-04T14:38:09.739Z,99114.43
2022-11-04T14:42:45.238Z,99113.52
2022-11-04T14:46:56.011Z,99121.23
2022-11-04T14:51:05.397Z,99125.91
2022-11-04T14:55:17.534Z,99126.16
2022-11-04T14:59:29.082Z,99129.71
2022-11-04T15:04:10.590Z,99136.85
2022-11-04T15:08:28.757Z,99137.53
2022-11-04T15:12:55.308Z,99138.30
2022-11-04T15:17:03.109Z,99134.45
2022-11-04T15:21:11.867Z,99136.77
2022-11-04T15:25:20.176Z,99128.80
2022-11-04T15:29:27.521Z,99129.49
2022-11-04T15:33:37.554Z,99131.38
2022-11-04T15:37:48.664Z,99132.42
2022-11-04T15:42:18.463Z,99131.99
2022-11-04T15:46:29.352Z,99125.23
2022-11-04T15:50:38.833Z,99125.42
2022-11-04T15:54:48.686Z,99121.11
2022-11-04T15:58:58.387Z,99120.67
2022-11-04T16:03:07.954Z,99118.15
2022-11-04T16:07:26.442Z,99120.41
2022-11-04T16:11:34.382Z,99122.27
2022-11-04T16:15:45.645Z,99121.55
2022-11-04T16:19:56.427Z,99129.07
2022-11-04T16:24:06.851Z,99127.42
2022-11-04T16:28:22.783Z,99126.91
2022-11-04T16:32:32.164Z,99123.32
2022-11-04T16:36:39.706Z,99130.45
2022-11-04T16:40:50.036Z,99135.87
2022-11-04T16:45:00.963Z,99133.27
2022-11-04T16:49:09.135Z,99130.33
2022-11-04T16:53:17.889Z,99131.49
2022-11-04T16:57:27.332Z,99131.88
2022-11-04T17:01:34.555Z,99127.66
2022-11-04T17:05:42.548Z,99128.25
2022-11-04T17:09:50.152Z,99123.49
2022-11-04T17:13:58.223Z,99122.41
2022-11-04T17:18:06.401Z,99114.11
2022-11-04T17:22:15.136Z,99112.73
2022-11-04T17:26:23.082Z,99114.95
2022-11-04T17:30:31.500Z,99122.32
2022-11-04T17:34:41.013Z,99125.11
2022-11-04T17:38:49.508Z,99123.54
2022-11-04T17:43:15.798Z,99123.70
2022-11-04T17:47:23.706Z,99124.55
2022-11-04T17:51:31.326Z,99127.35
2022-11-04T17:55:41.896Z,99117.27
2022-11-04T17:59:49.676Z,99116.11
2022-11-04T18:03:58.216Z,99113.96
2022-11-04T18:08:06.778Z,99110.60
2022-11-04T18:12:31.900Z,99102.48
2022-11-04T18:16:39.891Z,99097.23
2022-11-04T18:20:47.989Z,99093.73
2022-11-04T18:24:56.006Z,99087.86
2022-11-04T18:29:04.093Z,99085.74
2022-11-04T18:33:11.645Z,99088.41
2022-11-04T18:37:19.863Z,99101.02
2022-11-04T18:41:27.554Z,99109.59
2022-11-04T18:45:36.179Z,99127.30
2022-11-04T18:49:44.197Z,99136.09
2022-11-04T18:53:52.523Z,99139.88
2022-11-04T18:58:01.810Z,99135.45
2022-11-04T19:02:10.812Z,99123.36
2022-11-04T19:06:20.205Z,99122.10
2022-11-04T19:10:27.787Z,99126.20
2022-11-04T19:14:37.768Z,99121.35
2022-11-04T19:18:47.909Z,99125.18
2022-11-04T19:22:55.422Z,99125.85
2022-11-04T19:27:04.788Z,99123.46
2022-11-04T19:31:17.208Z,99125.01
2022-11-04T19:35:27.778Z,99128.17
2022-11-04T19:39:35.381Z,99134.61
2022-11-04T19:43:42.962Z,99136.33
2022-11-04T19:47:53.279Z,99132.11
2022-11-04T19:52:00.691Z,99131.70
2022-11-04T19:56:09.439Z,99130.16
2022-11-04T20:00:17.715Z,99137.11
2022-11-04T20:04:24.871Z,99142.58
2022-11-04T20:08:32.583Z,99144.98
2022-11-04T20:12:58.424Z,99153.27
2022-11-04T20:17:08.486Z,99155.16
2022-11-04T20:21:16.325Z,99159.59
2022-11-04T20:25:23.910Z,99157.86
2022-11-04T20:29:34.850Z,99158.59
2022-11-04T20:33:43.074Z,99160.30
2022-11-04T20:37:51.091Z,99164.47
2022-11-04T20:41:58.583Z,99163.62
2022-11-04T20:46:08.403Z,99172.54
2022-11-04T20:50:15.787Z,99177.13
2022-11-04T20:54:23.270Z,99172.98
2022-11-04T20:58:31.722Z,99172.30
2022-11-04T21:02:40.173Z,99168.64
2022-11-04T21:06:55.511Z,99176.03
2022-11-04T21:11:05.791Z,99172.70
2022-11-04T21:15:37.658Z,99172.27
2022-11-04T21:19:45.682Z,99185.98
2022-11-04T21:23:59.863Z,99190.71
2022-11-04T21:28:07.623Z,99193.87
2022-11-04T21:32:18.239Z,99196.42
2022-11-04T21:36:26.834Z,99207.10
2022-11-04T21:40:35.324Z,99205.04
2022-11-04T21:44:42.692Z,99207.52
2022-11-04T21:48:51.199Z,99207.49
2022-11-04T21:53:00.244Z,99200.45
2022-11-04T21:57:07.952Z,99206.97
2022-11-04T22:01:17.064Z,99206.02
2022-11-04T22:05:25.410Z,99207.30
2022-11-04T22:09:33.030Z,99202.98
2022-11-04T22:13:40.963Z,99202.44
2022-11-04T22:17:48.620Z,99208.05
2022-11-04T22:21:56.303Z,99209.10
2022-11-04T22:26:05.359Z,99218.84
2022-11-04T22:30:14.903Z,99217.14
2022-11-04T22:34:22.508Z,99215.77
2022-11-04T22:38:30.475Z,99220.10
2022-11-04T22:42:38.602Z,99234.22
2022-11-04T22:46:46.839Z,99238.26
2022-11-04T22:50:59.391Z,99248.26
2022-11-04T22:55:07.759Z,99254.41
2022-11-04T22:59:17.215Z,99262.61
2022-11-04T23:03:25.781Z,99264.66
2022-11-04T23:07:33.856Z,99263.40
2022-11-04T23:11:58.785Z,99261.84
2022-11-04T23:16:25.115Z,99263.69
2022-11-04T23:20:33.027Z,99269.68
2022-11-04T23:24:58.036Z,99279.98
2022-11-04T23:29:23.062Z,99287.73
2022-11-04T23:33:44.589Z,99287.34
2022-11-04T23:37:57.362Z,99282.94
2022-11-04T23:42:17.400Z,99287.21
2022-11-04T23:46:43.623Z,99291.64
2022-11-04T23:51:09.723Z,99295.83
2022-11-04T23:55:36.709Z,99306.08
